createdAt,value
2019-05-12T00:07:32.709Z,1184.93
2019-05-12T00:12:38.676Z,1165.17
2019-05-12T00:17:43.500Z,1019.33
2019-05-12T01:35:10.537Z,16.87
2019-05-12T01:40:14.355Z,14.63
2019-05-12T01:45:18.171Z,19.17
2019-05-12T01:50:21.692Z,16.23
2019-05-12T01:55:28.100Z,17.60
2019-05-12T02:00:31.785Z,11.40
2019-05-12T02:05:38.086Z,11.80
2019-05-12T02:10:41.781Z,13.20
2019-05-12T02:15:45.711Z,12.57
2019-05-12T02:20:50.551Z,11.53
2019-05-12T02:25:54.275Z,14.27
2019-05-12T02:30:59.019Z,11.87
2019-05-12T02:36:04.695Z,10.33
2019-05-12T02:41:08.298Z,12.13
2019-05-12T02:46:15.285Z,9.30
2019-05-12T02:51:17.460Z,9.80
2019-05-12T02:56:21.023Z,10.53
2019-05-12T03:01:24.690Z,10.50
2019-05-12T03:06:28.412Z,9.30
2019-05-12T03:21:44.074Z,9.00
2019-05-12T03:26:46.666Z,9.50
2019-05-12T03:31:50.513Z,8.17
2019-05-12T03:36:58.855Z,9.13
2019-05-12T03:41:59.665Z,8.53
2019-05-12T03:47:05.075Z,7.80
2019-05-12T03:52:08.940Z,9.27
2019-05-12T03:57:15.070Z,8.53
2019-05-12T04:07:24.362Z,8.10
2019-05-12T04:17:30.700Z,7.70
2019-05-12T04:22:35.312Z,7.33
2019-05-12T04:37:49.275Z,7.12
2019-05-12T04:42:54.776Z,7.90
2019-05-12T04:47:58.734Z,7.53
2019-05-12T04:53:06.020Z,7.63
2019-05-12T05:03:14.190Z,7.83
2019-05-12T05:08:19.835Z,6.93
2019-05-12T05:18:29.010Z,7.17
2019-05-12T05:23:33.538Z,7.00
2019-05-12T05:28:37.288Z,7.37
2019-05-12T05:33:43.301Z,7.77
2019-05-12T05:38:51.035Z,7.33
2019-05-12T05:43:54.266Z,7.70
2019-05-12T05:48:57.704Z,8.17
2019-05-12T05:54:03.779Z,7.80
2019-05-12T05:59:07.017Z,7.20
2019-05-12T06:04:10.628Z,7.97
2019-05-12T06:09:14.402Z,8.70
2019-05-12T06:14:18.244Z,7.10
2019-05-12T06:19:24.067Z,7.20
2019-05-12T06:24:27.309Z,8.33
2019-05-12T06:29:33.319Z,6.77
2019-05-12T06:34:36.691Z,8.00
2019-05-12T06:39:43.443Z,7.37
2019-05-12T06:44:48.926Z,7.33
2019-05-12T06:49:54.927Z,7.80
2019-05-12T06:54:57.697Z,8.27
2019-05-12T07:00:04.598Z,7.60
2019-05-12T07:05:08.826Z,7.80
2019-05-12T07:10:35.153Z,7.53
2019-05-12T07:15:18.891Z,6.93
2019-05-12T07:20:24.081Z,7.13
2019-05-12T07:25:31.271Z,8.37
2019-05-12T07:41:29.746Z,7.47
2019-05-12T07:51:40.677Z,7.83
2019-05-12T07:56:44.291Z,9.05
2019-05-12T08:01:51.876Z,7.80
2019-05-12T08:06:55.493Z,7.57
2019-05-12T08:17:11.182Z,7.57
2019-05-12T08:27:13.770Z,7.87
2019-05-12T08:32:20.113Z,8.60
2019-05-12T08:37:24.397Z,7.87
2019-05-12T08:47:35.510Z,8.80
2019-05-12T08:57:49.235Z,7.78
2019-05-12T09:07:55.773Z,8.70
2019-05-12T09:12:59.515Z,8.23
2019-05-12T09:23:08.349Z,7.62
2019-05-12T09:28:13.803Z,8.10
2019-05-12T09:33:21.585Z,7.95
2019-05-12T09:43:28.344Z,7.47
2019-05-12T09:48:33.452Z,8.03
2019-05-12T09:53:42.760Z,8.47
2019-05-12T10:03:47.629Z,9.30
2019-05-12T10:08:51.341Z,8.33
2019-05-12T10:13:55.022Z,8.70
2019-05-12T10:18:58.672Z,8.13
2019-05-12T10:24:04.937Z,7.87
2019-05-12T10:29:17.548Z,7.77
2019-05-12T10:34:24.212Z,8.07
2019-05-12T10:39:28.292Z,9.00
2019-05-12T10:44:39.197Z,8.53
2019-05-12T10:49:38.408Z,9.03
2019-05-12T10:59:48.640Z,12.87
2019-05-12T11:04:54.141Z,146.63
2019-05-12T11:10:03.576Z,327.03
2019-05-12T11:15:06.678Z,349.90
2019-05-12T11:20:10.431Z,423.00
2019-05-12T11:25:14.525Z,386.90
2019-05-12T11:30:18.787Z,262.08
2019-05-12T11:35:28.837Z,236.40
2019-05-12T11:45:44.465Z,408.40
2019-05-12T11:50:51.238Z,455.30
2019-05-12T11:55:54.365Z,437.63
2019-05-12T12:06:05.039Z,454.73
2019-05-12T12:11:10.536Z,407.77
2019-05-12T12:21:18.713Z,530.27
2019-05-12T12:26:30.261Z,772.90
2019-05-12T12:31:35.533Z,746.13
2019-05-12T12:36:39.371Z,932.95
2019-05-12T12:41:55.296Z,898.60
2019-05-12T12:46:51.242Z,756.03
2019-05-12T12:51:55.743Z,741.30
2019-05-12T12:57:06.625Z,1044.90
2019-05-12T13:02:09.140Z,933.67
2019-05-12T13:07:13.781Z,1010.20
2019-05-12T13:12:19.620Z,917.47
2019-05-12T13:17:28.970Z,877.07
2019-05-12T13:22:29.694Z,829.67
2019-05-12T13:27:36.755Z,937.77
2019-05-12T13:32:39.148Z,929.20
2019-05-12T13:38:00.502Z,767.23
2019-05-12T13:43:03.994Z,585.07
2019-05-12T13:48:09.564Z,717.43
2019-05-12T13:53:13.916Z,527.67
2019-05-12T13:58:18.138Z,344.95
2019-05-12T14:03:22.067Z,445.80
2019-05-12T14:08:25.814Z,324.10
2019-05-12T14:13:29.938Z,358.20
2019-05-12T14:18:36.286Z,627.10
2019-05-12T14:28:49.741Z,296.50
2019-05-12T14:33:53.986Z,272.83
2019-05-12T14:39:00.280Z,553.43
2019-05-12T14:49:08.171Z,592.85
2019-05-12T14:54:13.455Z,490.08
2019-05-12T15:04:27.975Z,210.40
2019-05-12T15:09:28.005Z,676.48
2019-05-12T15:14:36.110Z,670.52
2019-05-12T15:19:37.447Z,451.60
2019-05-12T15:44:59.326Z,528.80
2019-05-12T15:50:04.037Z,240.85
2019-05-12T15:55:08.119Z,514.10
2019-05-12T16:00:13.747Z,177.70
2019-05-12T16:10:24.844Z,447.90
2019-05-12T16:45:54.859Z,222.90
2019-05-12T16:50:58.794Z,147.55
2019-05-12T17:01:08.480Z,477.95
2019-05-12T17:16:26.242Z,384.83
2019-05-12T17:21:33.507Z,243.22
2019-05-12T17:26:38.001Z,258.02
2019-05-12T17:31:44.257Z,155.83
2019-05-12T17:36:50.132Z,1513.00
2019-05-12T17:52:12.992Z,224.80
2019-05-12T17:57:15.822Z,684.30
2019-05-12T18:07:23.682Z,621.83
2019-05-12T18:12:38.250Z,480.55
2019-05-12T18:22:39.351Z,1106.03
2019-05-12T18:27:50.396Z,726.77
2019-05-12T18:32:55.007Z,419.32
2019-05-12T18:42:59.038Z,268.33
2019-05-12T18:48:08.353Z,230.15
2019-05-12T18:53:14.477Z,213.85
2019-05-12T18:58:14.835Z,208.28
2019-05-12T19:03:20.779Z,195.45
2019-05-12T19:08:25.429Z,185.95
2019-05-12T19:13:29.784Z,182.60
2019-05-12T19:34:03.236Z,155.23
2019-05-12T19:39:44.453Z,148.33
2019-05-12T19:44:48.074Z,144.67
2019-05-12T19:49:53.651Z,142.10
2019-05-12T19:54:57.269Z,133.60
2019-05-12T20:00:01.144Z,131.43
2019-05-12T20:05:04.869Z,423.30
2019-05-12T20:10:12.277Z,479.70
2019-05-12T20:15:15.061Z,1025.50
2019-05-12T20:25:23.631Z,557.87
2019-05-12T20:30:28.266Z,1084.07
2019-05-12T20:40:39.727Z,1040.08
2019-05-12T20:45:45.043Z,1023.37
2019-05-12T20:55:54.714Z,1055.00
2019-05-12T21:01:01.939Z,1351.60
2019-05-12T21:06:04.561Z,1313.35
2019-05-12T21:11:08.821Z,1185.80
2019-05-12T21:16:17.642Z,947.67
2019-05-12T21:21:18.977Z,907.17
2019-05-12T21:36:35.506Z,1008.40
2019-05-12T21:41:40.784Z,937.03
2019-05-12T21:46:57.289Z,775.03
2019-05-12T21:51:58.863Z,943.40
2019-05-12T21:56:58.742Z,1327.47
2019-05-12T22:02:04.306Z,1526.63
2019-05-12T22:07:08.967Z,1718.00
2019-05-12T22:17:17.856Z,1434.20
2019-05-12T22:32:33.904Z,789.17
2019-05-12T22:42:44.538Z,463.25
2019-05-12T22:47:55.143Z,292.37
2019-05-12T22:58:00.727Z,103.70
2019-05-12T23:08:10.713Z,63.83
2019-05-12T23:13:14.995Z,48.40
2019-05-12T23:38:40.988Z,227.87
2019-05-12T23:43:45.229Z,566.40
2019-05-12T23:48:49.963Z,616.42
2019-05-12T23:53:54.192Z,855.33
